NCAR-RAP Real-Time Weather Data

Output produced by METARs form (18 August 2018  01:01 UTC)
found at http://weather.rap.ucar.edu/surface/
 
RJNT 180000Z VRB02KT 9999 FEW030 SCT/// 23/14 Q1014
RJNT 172300Z 18004KT 120V220 9999 FEW030 SCT/// 22/14 Q1013
RJNT 172200Z VRB02KT 9999 FEW030 SCT/// 18/14 Q1014
RJNT 172110Z VRB01KT 9999 FEW020 SCT/// 17/13 Q1013 RMK 1CU020 A2994
RJNT 171200Z 04003KT 340V100 9999 FEW040 SCT150 BKN/// 22/14 Q1014
RJNT 171100Z 04005KT 290V100 9999 FEW040 BKN/// 23/14 Q1013
RJNT 171000Z 02009KT 9999 FEW040 SCT150 BKN/// 23/14 Q1013
RJNT 170900Z 03008KT 360V080 9999 FEW040 23/14 Q1012
RJNT 170800Z 03012KT 360V060 9999 FEW040 24/14 Q1012
RJNT 170700Z 01012KT 340V050 9999 FEW040 25/15 Q1012
RJNT 170600Z 01014KT 9999 FEW035 25/15 Q1012
RJNT 170500Z 36015KT 9999 FEW035 25/15 Q1012
RJNT 170400Z 01012KT 340V050 9999 FEW040 SCT080 26/14 Q1012
RJNT 170300Z 04012KT 360V070 9999 FEW040 25/13 Q1012
RJNT 170200Z 01012KT 350V060 9999 FEW040 25/14 Q1013
RJNT 170100Z 01008KT 340V050 9999 VCSH FEW020 SCT040 24/15 Q1013
RJNT 170000Z 03010KT 350V080 9999 -SHRA FEW010 SCT030 BKN050 23/14 Q1013
RJNT 162300Z 03009KT 360V060 9999 FEW010 BKN050 23/14 Q1013
RJNT 162200Z 07004KT 020V100 9999 VCSH FEW010 BKN040 21/16 Q1012
RJNT 162110Z VRB02KT 9999 -SHRA FEW010 BKN030 21/18 Q1012 RMK 1CU010 6CU030 A2990
RJNT 161200Z VRB02KT 9999 -SHRA FEW005 SCT020 BKN040 22/22 Q1011
RJNT 161100Z 29003KT 250V330 5000 -SHRA BR FEW004 SCT020 BKN030 22/22 Q1010
RJNT 161043Z 29003KT 2000 -SHRA BR FEW004 SCT020 BKN030 22/22 Q1009 RMK 1ST004 4CU020 7CU030 A2982
RJNT 161017Z VRB01KT 2000 SHRA BR FEW004 BKN020 BKN030 22/22 Q1009 RMK 2ST004 5CU020 7CU030 A2980
RJNT 161000Z VRB01KT 3000 -SHRA BR FEW005 SCT020 BKN030 22/22 Q1008
RJNT 160920Z VRB02KT 5000 -SHRA BR FEW005 SCT015 BKN030 22/22 Q1008 RMK 2ST005 4CU015 7CU030 A2977
RJNT 160900Z VRB02KT 4000 SHRA BR FEW005 BKN015 BKN030 22/21 Q1007
RJNT 160828Z 19003KT 150V220 2200 SHRA BR FEW005 BKN020 BKN040 22/22 Q1007 RMK 2ST005 5CU020 7CU040 A2975
RJNT 160820Z 20003KT 160V230 3000 -SHRA BR FEW005 SCT020 BKN040 22/21 Q1007 RMK 2ST005 4CU020 7CU040 A2975
RJNT 160800Z 20003KT 8000 -SHRA BR FEW005 SCT020 BKN040 22/22 Q1006
RJNT 160748Z 24004KT 190V260 4000 -SHRA BR FEW003 SCT015 BKN030 22/21 Q1006 RMK 1ST003 3CU015 7CU030 A2973
RJNT 160700Z 28004KT 200V310 9999 -SHRA BR FEW003 SCT020 BKN030 22/21 Q1007
RJNT 160600Z VRB02KT 9999 -SHRA FEW003 SCT020 BKN030 22/21 Q1007
RJNT 160539Z 15004KT 050V200 9999 -SHRA FEW005 SCT010 BKN020 21/21 Q1007 RMK 1CU005 3CU010 6CU020 A2974 P/FR
RJNT 160521Z 16006KT 050V200 5000 SHRA BR FEW005 SCT010 BKN020 21/21 Q1008 RMK 1CU005 3CU010 6CU020 A2977
RJNT 160502Z 15004KT 090V220 1000 +SHRA BR FEW008 SCT015 BKN020 FEW020CB 21/21 Q1008 RMK 1CU008 3CU015 6CU020 2CB020 A2979 CB 10KM W MOV E RI++
RJNT 160500Z 15004KT 090V220 2000 SHRA BR FEW008 SCT015 BKN020 FEW020CB 21/21 Q1008
RJNT 160446Z 15005KT 100V210 2400 -SHRA BR FEW008 BKN020 FEW020CB BKN050 21/21 Q1008 RMK 1CU008 5CU020 1CB020 6SC050 A2979 CB 10KM W MOV E
RJNT 160428Z 11005KT 080V180 5000 SHRA BR FEW008 SCT020 FEW030CB BKN050 22/21 Q1008 RMK 1CU008 3CU020 2CB030 6SC050 A2979 CB 20KM W MOV E
RJNT 160414Z 11004KT 050V140 2400 +TSRA BR FEW005 SCT020 SCT030CB BKN050 22/21 Q1008 RMK 1CU005 3CU020 4CB030 6SC050 A2979 FBL TS 10KM W MOV E
RJNT 160400Z 07003KT 030V200 5000 TSRA BR FEW005 SCT020 SCT030CB BKN050 22/20 Q1008
RJNT 160337Z 32009KT 280V030 2000 +TSRA BR FEW003 SCT005 BKN008 BKN015CB 22/21 Q1008 RMK 1CU003 3CU005 5CU008 6CB015 A2978 MOD TS OHD MOV E
RJNT 160327Z 33006KT 280V010 1500 +TSRA BR FEW003 SCT005 BKN008 BKN015CB 23/22 Q1008 RMK 1CU003 3CU005 5CU008 6CB015 A2979 FBL TS OHD MOV E RI++
RJNT 160312Z 25005KT 210V020 1000 +TSRA BR FEW003 SCT005 BKN008 BKN015CB 23/23 Q1008 RMK 1CU003 3CU005 5CU008 6CB015 A2978 FBL TS OHD MOV E RI++
RJNT 160300Z 26007KT 210V330 2000 +TSRA BR FEW003 SCT005 BKN008 BKN010CB 23/23 Q1008
RJNT 160241Z 32005KT 260V360 4000 SHRA BR FEW005 BKN008 SCT020CB 24/23 Q1008 RMK 1CU005 5CU008 3CB020 A2977 CB 20KM W-NE MOV NE
RJNT 160207Z 31015G25KT 290V350 9999 -SHRA FEW010 FEW020CB BKN030 24/22 Q1007 RMK 1CU010 1CB020 6CU030 A2975 CB 30KM NW-N MOV NE P/RR
RJNT 160200Z 31019KT 6000 SHRA FEW010 FEW020CB BKN030 25/22 Q1006
RJNT 160100Z 23009KT 9999 -SHRA FEW020 SCT040 BKN060 29/23 Q1006
RJNT 160000Z 18010KT 140V200 9999 FEW030 SCT070 BKN/// 32/23 Q1005
RJNT 152331Z 18009KT 150V210 9999 FEW030 BKN/// 32/23 Q1005 RMK 1CU030 A2969
RJNT 152300Z 18009KT 150V210 9999 FEW020 SCT070 BKN120 30/23 Q1005
RJNT 152200Z 00000KT 9999 FEW020 BKN090 BKN110 28/23 Q1006
RJNT 152110Z 23002KT 9999 FEW020 BKN090 BKN170 27/23 Q1006 RMK 1CU020 5AC090 7AC170 A2972